Time;durP1;ratioP1;P1;durP2;ratioP2;P2;SDS_P1;SDS_P2;PMS_P1;PMS_P2;Temp;Humidity;BMP_temperature;BMP_pressure;BME280_temperature;BME280_humidity;BME280_pressure;Samples;Min_cycle;Max_cycle;Signal;HPM_P1;HPM_P2
2022/09/04 00:01:54;;;;;;;13.63;7.93;;;;;;;17.37;66.58;101252.00;5042856;28;20101;-75
2022/09/04 00:04:43;;;;;;;11.88;7.85;;;;;;;17.31;67.84;101247.00;5039233;28;20033;-75
2022/09/04 00:07:29;;;;;;;10.65;8.15;;;;;;;17.25;68.24;101248.16;5035711;28;20063;-76
2022/09/04 00:10:11;;;;;;;11.18;7.65;;;;;;;17.23;68.13;101257.06;5036413;28;20507;-75
2022/09/04 00:13:00;;;;;;;12.65;8.20;;;;;;;17.21;67.60;101257.13;5045740;28;20442;-75
2022/09/04 00:15:34;;;;;;;11.57;8.32;;;;;;;17.16;68.97;101250.38;5041918;28;20490;-76
2022/09/04 00:18:09;;;;;;;10.40;7.40;;;;;;;17.14;68.17;101259.19;5041263;28;20472;-76
2022/09/04 00:20:49;;;;;;;13.52;8.70;;;;;;;17.11;68.55;101264.56;5037126;28;20387;-75
2022/09/04 00:23:28;;;;;;;11.13;7.63;;;;;;;17.07;67.50;101273.56;5044855;28;20082;-76
2022/09/04 00:26:03;;;;;;;13.98;8.68;;;;;;;17.03;68.99;101265.84;5041291;28;20039;-76
2022/09/04 00:28:37;;;;;;;13.32;8.13;;;;;;;17.01;68.68;101267.69;5033598;28;20029;-76
2022/09/04 00:31:18;;;;;;;12.70;8.95;;;;;;;16.97;68.26;101269.63;5031750;28;20443;-76
2022/09/04 00:33:58;;;;;;;12.40;8.30;;;;;;;16.94;68.58;101267.97;5045206;28;20553;-76
2022/09/04 00:36:26;;;;;;;11.57;8.38;;;;;;;16.92;70.06;101268.94;5040479;28;20056;-76
2022/09/04 00:39:01;;;;;;;11.40;7.68;;;;;;;16.92;70.18;101266.31;5040739;28;20104;-76
2022/09/04 00:41:50;;;;;;;13.45;7.75;;;;;;;16.92;68.46;101272.44;5045799;28;20047;-76
2022/09/04 00:44:27;;;;;;;12.13;8.40;;;;;;;16.83;70.17;101264.94;5040550;28;20021;-76
2022/09/04 00:46:55;;;;;;;11.93;8.20;;;;;;;16.80;68.94;101275.63;5045580;28;20029;-75
2022/09/04 00:49:31;;;;;;;14.13;9.00;;;;;;;16.74;69.40;101276.72;5041544;28;20043;-76
2022/09/04 00:52:28;;;;;;;13.43;8.57;;;;;;;16.72;68.06;101275.97;5044359;28;20381;-75
2022/09/04 00:55:25;;;;;;;11.50;8.88;;;;;;;16.67;68.97;101277.94;5039989;28;20030;-75
2022/09/04 00:58:08;;;;;;;14.15;8.23;;;;;;;16.60;69.76;101284.38;5044406;28;20021;-75
2022/09/04 01:00:34;;;;;;;15.65;8.90;;;;;;;16.56;70.67;101290.72;5040460;28;20753;-75
2022/09/04 01:03:06;;;;;;;13.90;8.70;;;;;;;16.53;71.31;101287.28;5037446;28;20051;-75
2022/09/04 01:06:08;;;;;;;13.48;8.90;;;;;;;16.51;69.63;101286.50;5043476;28;20024;-76
2022/09/04 01:08:49;;;;;;;17.15;8.60;;;;;;;16.49;70.19;101290.97;5041798;28;20032;-76
2022/09/04 01:11:20;;;;;;;19.88;8.27;;;;;;;16.44;71.55;101292.94;5045052;28;20040;-76
2022/09/04 01:14:01;;;;;;;12.32;7.70;;;;;;;16.43;71.01;101298.25;5045518;28;20029;-76
2022/09/04 01:16:35;;;;;;;14.35;8.10;;;;;;;16.40;71.12;101301.84;5026102;28;20033;-75
2022/09/04 01:19:29;;;;;;;13.88;8.15;;;;;;;16.39;69.92;101298.38;5043456;28;20067;-76
2022/09/04 01:22:13;;;;;;;15.05;8.57;;;;;;;16.37;72.70;101299.38;5039634;28;20033;-75
2022/09/04 01:24:52;;;;;;;16.83;8.63;;;;;;;16.37;72.60;101304.63;5040832;28;20029;-75
2022/09/04 01:27:44;;;;;;;13.52;8.50;;;;;;;16.33;72.08;101309.13;5046697;28;20033;-76
2022/09/04 01:30:17;;;;;;;13.55;7.60;;;;;;;16.30;71.60;101306.66;5028627;28;20108;-76
2022/09/04 01:32:58;;;;;;;13.15;7.82;;;;;;;16.29;71.71;101306.72;5044485;28;20037;-75
2022/09/04 01:35:36;;;;;;;17.17;8.30;;;;;;;16.23;71.93;101313.94;5038183;28;20327;-75
2022/09/04 01:38:17;;;;;;;12.05;8.23;;;;;;;16.24;71.64;101304.28;5043941;28;20056;-75
2022/09/04 01:40:53;;;;;;;13.60;8.60;;;;;;;16.26;72.36;101304.22;5039801;28;20040;-75
2022/09/04 01:43:20;;;;;;;12.90;8.43;;;;;;;16.23;72.52;101313.94;5042366;28;20031;-76
2022/09/04 01:46:20;;;;;;;12.38;8.75;;;;;;;16.20;71.04;101314.06;5046683;28;20029;-75
2022/09/04 01:49:02;;;;;;;12.60;8.98;;;;;;;16.15;73.67;101315.16;5042638;28;20116;-76
2022/09/04 01:51:48;;;;;;;12.95;8.50;;;;;;;16.13;71.88;101319.66;5043597;28;20108;-75
2022/09/04 01:54:34;;;;;;;15.02;8.43;;;;;;;16.10;71.74;101323.22;5046474;28;20127;-75
2022/09/04 01:57:28;;;;;;;12.93;8.40;;;;;;;16.09;71.74;101326.78;5043728;28;20017;-75
2022/09/04 02:00:10;;;;;;;14.07;9.10;;;;;;;16.06;73.55;101324.28;5042034;28;20025;-75
2022/09/04 02:02:47;;;;;;;12.73;8.93;;;;;;;16.05;73.82;101325.22;5045737;28;20032;-76
2022/09/04 02:05:27;;;;;;;15.25;8.63;;;;;;;16.00;72.25;101341.13;5046120;28;20025;-76
2022/09/04 02:08:34;;;;;;;11.07;7.97;;;;;;;15.96;70.81;101341.31;5039577;28;20032;-75
2022/09/04 02:11:13;;;;;;;9.25;6.88;;;;;;;15.87;71.60;101343.41;5039275;28;20114;-75
2022/09/04 02:13:52;;;;;;;10.65;7.43;;;;;;;15.85;71.46;101340.00;5040638;28;21051;-75
2022/09/04 02:16:46;;;;;;;14.73;8.98;;;;;;;15.83;71.67;101352.28;5040322;28;20032;-75
2022/09/04 02:19:25;;;;;;;18.08;8.93;;;;;;;15.80;73.19;101354.19;5040023;28;20022;-75
2022/09/04 02:22:00;;;;;;;13.30;8.48;;;;;;;15.74;72.80;101356.13;5045102;28;20034;-75
2022/09/04 02:24:44;;;;;;;13.63;7.97;;;;;;;15.69;73.24;101362.47;5044134;28;20120;-76
2022/09/04 02:27:26;;;;;;;13.98;7.65;;;;;;;15.64;73.48;101357.38;5021435;28;20027;-75
2022/09/04 02:29:54;;;;;;;15.48;8.80;;;;;;;15.65;73.66;101363.50;5039620;28;20025;-76
2022/09/04 02:32:47;;;;;;;15.70;9.02;;;;;;;15.65;73.15;101368.75;5042176;28;20053;-75
2022/09/04 02:35:12;;;;;;;13.00;8.50;;;;;;;15.65;74.12;101366.13;5044343;28;20358;-75
2022/09/04 02:37:40;;;;;;;12.73;8.48;;;;;;;15.65;74.25;101359.09;5043624;28;20572;-75
2022/09/04 02:40:19;;;;;;;13.55;8.55;;;;;;;15.62;73.95;101365.31;5045995;28;20033;-75
2022/09/04 02:43:21;;;;;;;12.60;8.77;;;;;;;15.63;73.50;101367.03;5049493;28;20111;-75
2022/09/04 02:46:04;;;;;;;15.68;8.70;;;;;;;15.62;73.36;101367.94;5044943;28;20388;-75
2022/09/04 02:48:56;;;;;;;14.25;8.10;;;;;;;15.62;72.53;101365.31;5048215;28;20052;-75
2022/09/04 02:52:00;;;;;;;12.13;8.60;;;;;;;15.60;73.20;101376.78;5043115;28;20369;-75
2022/09/04 02:54:47;;;;;;;15.13;9.50;;;;;;;15.60;73.58;101367.16;5042416;28;20440;-75
2022/09/04 02:57:47;;;;;;;14.07;8.90;;;;;;;15.61;73.07;101375.88;5046716;28;20025;-75
2022/09/04 03:00:18;;;;;;;13.07;9.57;;;;;;;15.61;76.05;101368.84;5025562;28;20029;-76
2022/09/04 03:02:59;;;;;;;13.90;8.63;;;;;;;15.65;74.86;101371.38;5042843;28;20025;-75
2022/09/04 03:05:31;;;;;;;12.95;8.57;;;;;;;15.65;75.08;101373.97;5046651;28;20051;-75
2022/09/04 03:08:11;;;;;;;12.32;8.95;;;;;;;15.67;76.25;101380.03;5046464;28;20576;-75
2022/09/04 03:11:03;;;;;;;12.10;9.13;;;;;;;15.69;75.82;101380.84;5043950;28;20033;-75
2022/09/04 03:13:40;;;;;;;10.93;8.70;;;;;;;15.69;77.17;101381.66;5043677;28;20021;-75
2022/09/04 03:16:28;;;;;;;11.93;8.75;;;;;;;15.71;76.47;101379.84;5045628;28;20040;-75
2022/09/04 03:19:18;;;;;;;11.05;8.68;;;;;;;15.72;76.19;101385.94;5045200;28;20189;-75
2022/09/04 03:22:03;;;;;;;10.13;8.52;;;;;;;15.68;77.25;101384.38;5044780;28;20171;-75
2022/09/04 03:24:53;;;;;;;10.90;8.18;;;;;;;15.70;76.60;101380.75;5042117;28;20538;-76
2022/09/04 03:27:19;;;;;;;10.82;8.50;;;;;;;15.71;76.45;101381.63;5048184;28;20435;-75
2022/09/04 03:30:07;;;;;;;10.75;8.80;;;;;;;15.70;75.34;101383.38;5044813;28;20021;-76
2022/09/04 03:32:50;;;;;;;11.80;8.68;;;;;;;15.70;75.00;101385.16;5045946;28;20124;-75
2022/09/04 03:35:43;;;;;;;10.80;8.32;;;;;;;15.69;75.37;101383.47;5046286;28;20032;-75
2022/09/04 03:38:19;;;;;;;11.18;8.27;;;;;;;15.67;75.36;101387.91;5028802;28;20161;-76
2022/09/04 03:40:52;;;;;;;10.52;8.25;;;;;;;15.62;74.63;101391.53;5045865;28;20021;-75
2022/09/04 03:43:30;;;;;;;12.18;8.50;;;;;;;15.57;74.46;101390.84;5042463;28;20052;-75
2022/09/04 03:46:40;;;;;;;9.23;7.80;;;;;;;15.56;74.59;101393.56;5046411;28;20016;-75
2022/09/04 03:49:10;;;;;;;12.95;8.15;;;;;;;15.52;74.93;101390.19;4966168;28;20113;-75
2022/09/04 03:52:07;;;;;;;9.63;7.88;;;;;;;15.48;73.54;101391.22;5032386;28;20041;-75
2022/09/04 03:54:59;;;;;;;10.40;8.15;;;;;;;15.43;73.93;101390.53;5037539;28;20036;-75
2022/09/04 03:57:46;;;;;;;10.52;8.13;;;;;;;15.38;74.94;101402.94;5047422;28;20033;-75
2022/09/04 04:00:20;;;;;;;14.18;8.30;;;;;;;15.36;74.51;101408.25;5044749;28;20487;-75
2022/09/04 04:03:04;;;;;;;12.68;7.95;;;;;;;15.32;74.78;101404.91;5047754;28;20047;-75
2022/09/04 04:05:38;;;;;;;10.68;8.25;;;;;;;15.30;75.64;101403.22;5044501;28;20442;-75
2022/09/04 04:08:33;;;;;;;13.93;8.52;;;;;;;15.27;75.29;101406.81;5044691;28;20448;-75
2022/09/04 04:11:32;;;;;;;12.38;7.72;;;;;;;15.26;74.49;101412.97;5043154;28;20430;-75
2022/09/04 04:14:34;;;;;;;10.93;8.13;;;;;;;15.24;75.07;101414.78;5047545;28;20020;-75
2022/09/04 04:17:11;;;;;;;;;;;;;;;15.30;72.56;101418.97;5050610;28;20205;-75
2022/09/04 04:20:28;;;;;;;12.07;8.02;;;;;;;15.24;73.63;101420.03;5050001;28;19921;-75
2022/09/04 04:23:16;;;;;;;11.93;8.00;;;;;;;15.20;74.78;101423.69;4990293;28;20031;-75
2022/09/04 04:26:02;;;;;;;13.35;8.15;;;;;;;15.17;75.92;101422.03;4987272;28;20113;-75
2022/09/04 04:29:07;;;;;;;13.40;8.48;;;;;;;15.21;75.47;101428.00;5039051;28;20119;-75
2022/09/04 04:32:10;;;;;;;14.00;8.75;;;;;;;15.19;76.28;101429.84;5045278;28;20049;-75
2022/09/04 04:35:01;;;;;;;14.15;8.18;;;;;;;15.17;75.33;101437.75;5050783;28;20059;-75
2022/09/04 04:37:55;;;;;;;14.13;8.05;;;;;;;15.16;75.69;101436.03;5049723;28;21313;-75
2022/09/04 04:40:31;;;;;;;11.73;8.27;;;;;;;15.13;77.21;101438.75;5051231;28;20059;-75
2022/09/04 04:43:18;;;;;;;9.77;7.75;;;;;;;15.15;76.88;101443.97;5048764;28;20116;-76
2022/09/04 04:45:54;;;;;;;11.05;8.25;;;;;;;15.15;76.99;101443.97;5050575;28;20055;-75
2022/09/04 04:48:41;;;;;;;10.85;8.55;;;;;;;15.13;76.26;101437.94;5047500;28;20029;-76
2022/09/04 04:51:40;;;;;;;10.95;7.97;;;;;;;15.13;75.52;101440.53;5049852;28;20029;-75
2022/09/04 04:54:39;;;;;;;9.55;7.97;;;;;;;15.13;76.21;101444.00;5049477;28;20023;-75
2022/09/04 04:57:37;;;;;;;10.38;7.95;;;;;;;15.12;76.34;101439.66;5046167;28;20033;-75
2022/09/04 05:00:18;;;;;;;11.23;8.15;;;;;;;15.12;77.57;101442.28;5034835;28;20086;-75
2022/09/04 05:02:59;;;;;;;8.90;7.80;;;;;;;15.12;78.21;101450.16;5049685;28;20037;-75
2022/09/04 05:05:46;;;;;;;10.68;7.60;;;;;;;15.12;76.74;101457.19;5049284;28;20031;-75
2022/09/04 05:08:33;;;;;;;11.75;7.82;;;;;;;15.12;76.74;101454.56;5050184;28;20033;-75
2022/09/04 05:11:42;;;;;;;11.35;8.13;;;;;;;15.13;76.41;101464.13;5049217;28;20104;-75
2022/09/04 05:14:39;;;;;;;10.05;7.50;;;;;;;15.13;76.20;101464.13;5045911;28;20461;-75
2022/09/04 05:17:25;;;;;;;9.13;7.50;;;;;;;15.11;76.57;101471.19;5048002;28;20055;-75
2022/09/04 05:20:02;;;;;;;9.18;7.50;;;;;;;15.11;76.67;101479.06;5048375;28;20031;-75
2022/09/04 05:22:37;;;;;;;10.20;7.60;;;;;;;15.11;77.05;101468.56;5046004;28;20083;-75
2022/09/04 05:25:14;;;;;;;10.43;7.88;;;;;;;15.11;77.87;101474.69;5044986;28;20021;-75
2022/09/04 05:28:00;;;;;;;9.50;7.90;;;;;;;15.13;78.30;101480.69;5048618;28;20021;-75
2022/09/04 05:30:34;;;;;;;13.13;8.35;;;;;;;15.16;78.31;101485.00;5046792;28;20040;-75
2022/09/04 05:33:07;;;;;;;11.98;8.77;;;;;;;15.20;78.27;101494.44;5047800;28;20458;-75
2022/09/04 05:35:44;;;;;;;11.52;8.48;;;;;;;15.22;77.66;101500.50;5044753;28;20029;-76
2022/09/04 05:38:32;;;;;;;13.00;9.07;;;;;;;15.23;78.21;101499.59;5049639;28;20387;-75
2022/09/04 05:41:13;;;;;;;11.23;8.57;;;;;;;15.25;78.30;101502.16;5047469;28;20039;-75
2022/09/04 05:44:00;;;;;;;12.20;8.60;;;;;;;15.25;78.63;101513.50;5049813;28;21406;-75
2022/09/04 05:46:25;;;;;;;10.73;8.18;;;;;;;15.30;78.58;101508.97;5051303;28;20037;-75
2022/09/04 05:49:25;;;;;;;11.85;8.32;;;;;;;15.35;77.66;101508.78;5030853;28;20488;-75
2022/09/04 05:52:17;;;;;;;9.52;8.43;;;;;;;15.37;78.10;101508.75;5047425;28;20503;-75
2022/09/04 05:55:20;;;;;;;9.30;8.00;;;;;;;15.39;77.85;101514.78;5048245;28;20108;-75
2022/09/04 05:57:55;;;;;;;10.95;8.00;;;;;;;15.44;78.32;101518.09;5048601;28;20036;-75
2022/09/04 06:00:21;;;;;;;12.27;8.75;;;;;;;15.48;78.78;101524.94;5043133;28;20147;-75
2022/09/04 06:02:55;;;;;;;11.20;8.25;;;;;;;15.54;79.04;101532.59;5046528;28;20029;-76
2022/09/04 06:05:46;;;;;;;10.55;7.97;;;;;;;15.60;78.93;101529.75;5047542;28;20025;-75
2022/09/04 06:08:46;;;;;;;10.73;8.07;;;;;;;15.68;78.77;101528.63;5047824;28;20025;-75
2022/09/04 06:11:38;;;;;;;11.37;7.97;;;;;;;15.76;79.15;101530.06;5050013;28;20075;-75
2022/09/04 06:14:55;;;;;;;10.57;7.63;;;;;;;15.85;79.78;101533.25;5045843;28;20036;-75
2022/09/04 06:17:55;;;;;;;9.70;7.93;;;;;;;15.92;79.54;101540.88;5025714;28;20040;-75
2022/09/04 06:20:28;;;;;;;11.82;8.20;;;;;;;16.00;80.68;101542.38;5026778;28;20406;-75
2022/09/04 06:23:15;;;;;;;9.40;7.68;;;;;;;16.05;81.09;101540.44;5046197;28;20021;-75
2022/09/04 06:26:13;;;;;;;9.85;7.93;;;;;;;16.13;80.23;101533.09;5047846;28;20039;-75
2022/09/04 06:28:53;;;;;;;11.48;8.45;;;;;;;16.21;81.35;101546.81;5046436;28;20024;-76
2022/09/04 06:31:18;;;;;;;10.60;8.07;;;;;;;16.28;81.31;101547.44;5042926;28;20056;-75
2022/09/04 06:34:19;;;;;;;10.57;8.45;;;;;;;16.38;80.90;101547.94;5048573;28;20033;-75
2022/09/04 06:36:59;;;;;;;9.95;7.93;;;;;;;16.44;81.92;101550.28;5047016;28;20033;-75
2022/09/04 06:39:39;;;;;;;10.43;7.75;;;;;;;16.52;81.43;101548.25;5045194;28;20037;-75
2022/09/04 06:42:32;;;;;;;9.55;8.27;;;;;;;16.58;81.22;101555.00;5051652;28;20095;-75
2022/09/04 06:45:13;;;;;;;10.95;8.35;;;;;;;16.65;81.54;101559.09;5006856;28;20045;-75
2022/09/04 06:47:56;;;;;;;11.17;8.37;;;;;;;16.71;81.72;101555.38;5046767;28;20476;-75
2022/09/04 06:50:27;;;;;;;12.23;8.13;;;;;;;16.77;81.70;101560.38;5046901;28;20294;-75
2022/09/04 06:53:13;;;;;;;11.02;7.85;;;;;;;16.86;81.46;101558.31;5045452;28;20388;-75
2022/09/04 06:56:00;;;;;;;10.30;8.68;;;;;;;16.93;80.68;101562.38;5047569;28;20029;-75
2022/09/04 06:58:32;;;;;;;10.60;8.02;;;;;;;16.99;81.05;101559.53;5031858;28;20163;-75
2022/09/04 07:01:06;;;;;;;;;;;;;;;17.06;79.38;101550.50;5047423;28;20057;-76
2022/09/04 07:03:56;;;;;;;9.05;7.53;;;;;;;17.12;80.28;101554.63;5046953;28;19912;-75
2022/09/04 07:06:46;;;;;;;9.38;7.47;;;;;;;17.20;79.91;101559.56;5051866;28;20473;-76
2022/09/04 07:09:37;;;;;;;11.90;7.85;;;;;;;17.26;80.58;101559.28;5042957;28;20187;-75
2022/09/04 07:12:24;;;;;;;10.23;7.80;;;;;;;17.34;80.34;101559.84;5044037;28;20041;-75
2022/09/04 07:15:08;;;;;;;9.73;7.72;;;;;;;17.42;79.83;101565.59;5047317;28;20298;-75
2022/09/04 07:17:38;;;;;;;9.60;7.72;;;;;;;17.51;80.23;101571.41;5047913;28;20024;-75
2022/09/04 07:20:24;;;;;;;9.38;8.00;;;;;;;17.59;79.97;101577.19;5048109;28;20029;-76
2022/09/04 07:23:22;;;;;;;10.55;7.63;;;;;;;17.65;79.29;101576.91;5044691;28;20040;-75
2022/09/04 07:26:16;;;;;;;9.75;8.10;;;;;;;17.74;79.30;101579.16;5047779;28;20103;-75
2022/09/04 07:29:29;;;;;;;10.25;7.50;;;;;;;17.85;79.12;101575.19;5047782;28;20043;-75
2022/09/04 07:32:01;;;;;;;9.63;7.80;;;;;;;17.95;79.07;101581.72;5036344;28;20049;-75
2022/09/04 07:34:56;;;;;;;11.68;8.00;;;;;;;18.03;79.19;101584.91;5046247;28;20376;-76
2022/09/04 07:37:49;;;;;;;12.88;8.43;;;;;;;18.12;78.35;101583.66;5045764;28;20016;-76
2022/09/04 07:40:16;;;;;;;11.10;7.32;;;;;;;18.20;78.44;101585.91;5029769;28;20033;-76
2022/09/04 07:42:56;;;;;;;9.93;7.88;;;;;;;18.27;77.48;101587.34;5044943;28;20062;-75
2022/09/04 07:45:49;;;;;;;10.38;7.47;;;;;;;18.34;77.63;101577.38;5043806;28;20031;-76
2022/09/04 07:48:33;;;;;;;13.20;8.40;;;;;;;18.43;77.38;101586.66;5042238;28;20104;-76
2022/09/04 07:51:25;;;;;;;10.23;7.28;;;;;;;18.53;77.05;101587.91;5044754;28;20020;-75
2022/09/04 07:54:03;;;;;;;;;;;;;;;18.61;76.69;101588.41;5041792;28;20021;-76
2022/09/04 07:56:44;;;;;;;8.63;6.50;;;;;;;18.70;76.48;101595.03;5045494;28;19928;-76
2022/09/04 07:59:19;;;;;;;9.68;6.97;;;;;;;18.79;76.98;101602.47;5042960;28;20071;-76
2022/09/04 08:02:08;;;;;;;10.32;6.88;;;;;;;18.88;76.06;101597.66;5044422;28;20182;-75
2022/09/04 08:04:55;;;;;;;11.85;7.43;;;;;;;18.96;75.99;101606.09;5037781;28;20029;-76
2022/09/04 08:07:27;;;;;;;9.98;7.10;;;;;;;19.03;75.77;101604.00;5043833;28;20066;-76
2022/09/04 08:10:26;;;;;;;10.13;7.60;;;;;;;19.10;75.52;101603.63;5040408;28;20067;-75
2022/09/04 08:13:21;;;;;;;11.80;7.07;;;;;;;19.20;75.24;101609.31;5025045;28;20037;-75
2022/09/04 08:16:07;;;;;;;9.48;6.68;;;;;;;19.30;74.94;101611.50;5043098;28;20025;-78
2022/09/04 08:18:51;;;;;;;11.20;6.50;;;;;;;19.39;74.98;101616.28;5042311;28;20041;-75
2022/09/04 08:21:26;;;;;;;10.23;6.38;;;;;;;19.49;74.45;101606.97;5040907;28;20978;-76
2022/09/04 08:24:24;;;;;;;9.30;7.13;;;;;;;19.59;74.43;101614.44;5041632;28;20044;-76
2022/09/04 08:27:10;;;;;;;7.65;6.13;;;;;;;19.70;73.89;101617.34;5021379;28;20041;-76
2022/09/04 08:30:05;;;;;;;9.40;6.75;;;;;;;19.82;73.51;101621.97;5042416;28;20488;-76
2022/09/04 08:32:45;;;;;;;10.60;6.75;;;;;;;19.96;73.21;101617.81;5043236;28;20053;-76
2022/09/04 08:35:21;;;;;;;9.43;6.70;;;;;;;20.05;72.23;101617.31;5043176;28;20035;-76
2022/09/04 08:38:03;;;;;;;10.77;6.60;;;;;;;20.11;71.64;101622.28;5025163;28;20039;-76
2022/09/04 08:41:06;;;;;;;8.10;6.35;;;;;;;20.19;71.56;101628.91;5040795;28;20033;-76
2022/09/04 08:44:09;;;;;;;10.00;6.85;;;;;;;20.26;71.81;101628.50;5039428;28;20120;-76
2022/09/04 08:46:51;;;;;;;8.85;6.90;;;;;;;20.31;70.75;101626.47;5021224;28;20043;-76
2022/09/04 08:49:43;;;;;;;9.05;7.03;;;;;;;20.39;70.44;101626.03;5040354;28;20033;-77
2022/09/04 08:52:34;;;;;;;9.07;6.50;;;;;;;20.44;70.38;101634.59;5036462;28;20041;-76
2022/09/04 08:55:45;;;;;;;9.27;6.07;;;;;;;20.52;70.78;101631.53;5041261;28;20125;-76
2022/09/04 08:58:43;;;;;;;8.88;5.75;;;;;;;20.62;70.12;101634.50;5040744;28;20029;-76
2022/09/04 09:01:34;;;;;;;7.75;5.72;;;;;;;20.70;69.70;101639.38;5047724;28;20028;-76
2022/09/04 09:04:25;;;;;;;9.13;5.78;;;;;;;20.77;69.64;101638.09;5045080;28;20029;-76
2022/09/04 09:07:18;;;;;;;10.38;6.28;;;;;;;20.84;68.92;101635.94;5045924;28;20125;-76
2022/09/04 09:10:01;;;;;;;7.85;5.90;;;;;;;20.90;68.75;101632.97;5047916;28;20033;-76
2022/09/04 09:13:02;;;;;;;7.47;4.95;;;;;;;20.96;68.51;101635.28;5047010;28;20032;-76
2022/09/04 09:15:47;;;;;;;9.18;5.85;;;;;;;21.01;68.18;101638.50;5041850;28;20402;-76
2022/09/04 09:18:34;;;;;;;7.13;5.13;;;;;;;21.08;68.32;101639.84;5041908;28;20722;-76
2022/09/04 09:21:22;;;;;;;8.52;5.45;;;;;;;21.14;66.99;101641.28;5044546;28;20032;-76
2022/09/04 09:24:02;;;;;;;8.02;5.88;;;;;;;21.26;67.24;101638.88;5036554;28;20069;-76
2022/09/04 09:26:32;;;;;;;8.63;5.87;;;;;;;21.33;67.24;101645.50;5043311;28;20044;-77
2022/09/04 09:29:25;;;;;;;11.05;5.85;;;;;;;21.41;67.22;101643.28;5044693;28;20272;-76
2022/09/04 09:32:02;;;;;;;9.20;6.35;;;;;;;21.48;66.39;101641.13;5033827;28;20579;-76
2022/09/04 09:35:07;;;;;;;7.50;5.68;;;;;;;21.54;67.12;101635.44;5042682;28;20046;-76
2022/09/04 09:37:35;;;;;;;7.50;5.57;;;;;;;21.59;65.65;101628.09;5044410;28;20044;-76
2022/09/04 09:40:03;;;;;;;8.23;5.00;;;;;;;21.65;65.87;101629.53;5040651;28;20039;-76
2022/09/04 09:42:54;;;;;;;6.75;5.05;;;;;;;21.68;65.28;101630.22;5042349;28;20036;-76
2022/09/04 09:45:54;;;;;;;7.97;5.43;;;;;;;21.73;64.82;101635.25;5044564;28;20037;-75
2022/09/04 09:48:54;;;;;;;9.27;5.95;;;;;;;21.76;65.39;101629.75;5042574;28;20293;-75
2022/09/04 09:51:41;;;;;;;7.03;5.22;;;;;;;21.83;65.19;101632.88;5044902;28;20080;-75
2022/09/04 09:54:36;;;;;;;7.38;4.97;;;;;;;21.90;64.63;101639.50;5043711;28;20029;-76
2022/09/04 09:57:56;;;;;;;5.85;4.60;;;;;;;21.94;64.56;101641.00;5048611;28;20032;-75
2022/09/04 10:00:24;;;;;;;8.48;4.90;;;;;;;21.97;64.20;101632.88;5048122;28;20028;-76
2022/09/04 10:03:24;;;;;;;5.53;4.82;;;;;;;22.02;63.76;101639.72;5044192;28;20055;-76
2022/09/04 10:06:10;;;;;;;11.13;4.97;;;;;;;22.09;63.97;101630.41;5047708;28;20029;-76
2022/09/04 10:09:09;;;;;;;6.18;4.05;;;;;;;22.16;63.46;101637.06;5043576;28;21160;-76
2022/09/04 10:12:11;;;;;;;5.75;3.70;;;;;;;22.25;63.87;101631.16;5047168;28;20123;-76
2022/09/04 10:14:36;;;;;;;;;;;;;;;22.33;63.52;101621.88;5045042;28;20605;-76
2022/09/04 10:17:33;;;;;;;4.13;3.10;;;;;;;22.38;62.56;101630.38;5048614;28;19916;-75
2022/09/04 10:20:13;;;;;;;4.85;2.90;;;;;;;22.47;62.89;101628.97;5045238;28;20033;-75
2022/09/04 10:22:45;;;;;;;4.15;2.72;;;;;;;22.54;60.41;101632.94;5046864;28;20082;-75
2022/09/04 10:25:34;;;;;;;3.40;2.60;;;;;;;22.61;61.14;101630.75;5046212;28;20037;-76
2022/09/04 10:28:13;;;;;;;3.53;2.40;;;;;;;22.71;60.19;101626.56;5046331;28;20025;-76
2022/09/04 10:31:25;;;;;;;4.18;2.38;;;;;;;22.84;60.01;101632.78;5045030;28;20053;-75
2022/09/04 10:34:03;;;;;;;4.68;2.30;;;;;;;22.99;58.90;101635.38;5046765;28;20416;-75
2022/09/04 10:37:02;;;;;;;3.83;2.35;;;;;;;23.11;59.31;101636.34;5045595;28;20032;-75
2022/09/04 10:43:16;;;;;;;5.45;2.33;;;;;;;23.28;59.29;101629.94;5046572;28;20086;-75
2022/09/04 10:46:07;;;;;;;3.85;2.05;;;;;;;23.45;58.71;101631.47;5044974;28;20020;-76
2022/09/04 10:48:48;;;;;;;3.22;2.03;;;;;;;23.55;56.49;101640.50;5046081;28;20029;-76
2022/09/04 10:52:04;;;;;;;2.20;1.90;;;;;;;23.56;57.80;101636.06;5044168;28;20028;-75
2022/09/04 10:54:49;;;;;;;4.25;1.90;;;;;;;23.51;55.43;101632.84;4958706;28;20077;-75
2022/09/04 10:57:46;;;;;;;3.42;1.85;;;;;;;23.43;56.25;101634.22;5044754;28;20035;-75
2022/09/04 11:00:17;;;;;;;2.65;1.60;;;;;;;23.38;55.70;101631.03;5038051;28;20033;-75
2022/09/04 11:03:13;;;;;;;2.53;1.60;;;;;;;23.39;56.19;101627.44;5040166;28;20098;-75
2022/09/04 11:06:02;;;;;;;3.03;1.55;;;;;;;23.41;56.46;101633.47;5038548;28;20116;-75
2022/09/04 11:08:37;;;;;;;2.67;1.60;;;;;;;23.46;55.61;101636.66;5044382;28;20033;-75
2022/09/04 11:11:44;;;;;;;1.98;1.60;;;;;;;23.53;56.18;101638.91;5042801;28;20032;-76
2022/09/04 11:14:17;;;;;;;3.20;1.80;;;;;;;23.60;55.34;101640.16;5043466;28;20051;-76
2022/09/04 11:17:03;;;;;;;2.80;1.80;;;;;;;23.67;55.06;101637.94;5040011;28;20044;-76
2022/09/04 11:19:56;;;;;;;2.72;1.73;;;;;;;23.71;54.57;101631.47;5043779;28;20396;-76
2022/09/04 11:22:33;;;;;;;2.35;1.60;;;;;;;23.70;52.64;101633.28;5046986;28;20090;-76
2022/09/04 11:25:26;;;;;;;3.70;1.63;;;;;;;23.71;53.87;101637.66;5042420;28;20071;-76
2022/09/04 11:28:11;;;;;;;2.38;1.35;;;;;;;23.73;52.40;101640.19;5043029;28;20110;-76
2022/09/04 11:31:29;;;;;;;1.92;1.40;;;;;;;23.85;53.60;101628.69;5039529;28;20558;-76
2022/09/04 11:34:14;;;;;;;2.28;1.50;;;;;;;24.02;53.74;101634.66;5039643;28;20072;-76
2022/09/04 11:36:48;;;;;;;1.88;1.60;;;;;;;24.12;52.80;101632.22;5041227;28;20119;-76
2022/09/04 11:39:35;;;;;;;2.13;1.50;;;;;;;24.19;51.63;101630.81;5041088;28;20036;-76
2022/09/04 11:42:26;;;;;;;3.00;1.40;;;;;;;24.24;52.43;101639.34;5041752;28;20086;-76
2022/09/04 11:44:59;;;;;;;3.78;1.60;;;;;;;24.25;48.69;101635.72;5040898;28;20119;-76
2022/09/04 11:47:30;;;;;;;2.00;1.50;;;;;;;24.27;50.35;101639.09;5037977;28;20032;-76
2022/09/04 11:50:15;;;;;;;3.28;1.58;;;;;;;24.31;50.77;101629.94;5040210;28;20064;-76
2022/09/04 11:52:58;;;;;;;3.00;1.30;;;;;;;24.35;48.03;101626.09;5040692;28;20055;-75
2022/09/04 11:55:45;;;;;;;1.80;1.55;;;;;;;24.39;49.32;101637.38;5039237;28;20480;-76
2022/09/04 11:58:35;;;;;;;2.22;1.58;;;;;;;24.39;46.97;101634.72;5039809;28;20059;-76
2022/09/04 12:01:25;;;;;;;2.50;1.50;;;;;;;24.47;48.89;101636.81;5042926;28;20075;-75
2022/09/04 12:04:02;;;;;;;1.63;1.38;;;;;;;24.51;46.14;101633.81;5023032;28;20032;-76
2022/09/04 12:06:48;;;;;;;3.78;1.60;;;;;;;24.53;46.00;101637.22;5039630;28;20060;-76
2022/09/04 12:09:42;;;;;;;2.92;1.50;;;;;;;24.60;48.18;101634.94;5037202;28;20041;-76
2022/09/04 12:12:34;;;;;;;2.45;1.52;;;;;;;24.66;47.32;101631.84;5037714;28;20500;-76
2022/09/04 12:15:30;;;;;;;2.58;1.77;;;;;;;24.72;46.83;101641.22;5038742;28;20072;-76
2022/09/04 12:18:24;;;;;;;5.60;2.03;;;;;;;24.78;46.76;101647.91;5039263;28;20037;-76
2022/09/04 12:21:20;;;;;;;3.05;1.60;;;;;;;24.81;44.65;101650.34;5040801;28;20036;-77
2022/09/04 12:24:12;;;;;;;164.00;11.13;;;;;;;24.84;44.91;101650.13;5042756;28;20017;-77
2022/09/04 12:27:08;;;;;;;13.02;2.75;;;;;;;24.91;46.34;101646.06;5041639;28;20029;-77
2022/09/04 12:30:11;;;;;;;3.92;2.03;;;;;;;24.96;45.47;101651.88;5038195;28;20361;-77
2022/09/04 12:32:59;;;;;;;4.53;2.00;;;;;;;25.03;44.06;101651.41;5036881;28;20095;-76
2022/09/04 12:35:41;;;;;;;3.13;1.85;;;;;;;25.06;43.02;101646.69;5041120;28;20063;-77
2022/09/04 12:38:15;;;;;;;2.65;1.90;;;;;;;25.09;41.57;101645.66;5043568;28;20021;-76
2022/09/04 12:40:59;;;;;;;2.78;1.85;;;;;;;25.16;42.86;101641.53;5043417;28;20504;-76
2022/09/04 12:44:07;;;;;;;5.32;1.85;;;;;;;25.23;42.34;101647.25;5042057;28;20114;-76
2022/09/04 12:46:55;;;;;;;2.72;1.80;;;;;;;25.29;41.69;101647.63;5038388;28;20337;-76
2022/09/04 12:49:54;;;;;;;4.10;1.80;;;;;;;25.38;43.06;101655.91;5041687;28;20025;-76
2022/09/04 12:52:29;;;;;;;3.05;1.95;;;;;;;25.40;41.74;101648.66;5038975;28;20029;-76